createdAt,value
2022-12-15T00:00:22.426Z,981.85
2022-12-15T00:01:22.356Z,981.91
2022-12-15T00:02:22.512Z,981.92
2022-12-15T00:03:22.508Z,981.95
2022-12-15T00:04:22.378Z,981.91
2022-12-15T00:05:22.363Z,981.93
2022-12-15T00:06:22.541Z,981.95
2022-12-15T00:07:22.361Z,981.97
2022-12-15T00:08:22.381Z,981.99
2022-12-15T00:09:24.063Z,982.03
2022-12-15T00:10:22.370Z,982.05
2022-12-15T00:11:22.369Z,981.97
2022-12-15T00:12:22.362Z,982.08
2022-12-15T00:13:22.396Z,981.99
2022-12-15T00:14:22.373Z,981.99
2022-12-15T00:15:22.370Z,981.99
2022-12-15T00:16:22.402Z,982.00
2022-12-15T00:17:22.510Z,981.94
2022-12-15T00:18:22.383Z,982.04
2022-12-15T00:19:22.358Z,981.96
2022-12-15T00:20:22.398Z,982.00
2022-12-15T00:21:22.376Z,982.03
2022-12-15T00:22:22.372Z,982.05
2022-12-15T00:23:22.379Z,982.04
2022-12-15T00:24:22.366Z,982.08
2022-12-15T00:25:22.630Z,982.07
2022-12-15T00:26:22.378Z,982.04
2022-12-15T00:27:22.369Z,982.03
2022-12-15T00:28:22.366Z,981.97
2022-12-15T00:29:22.357Z,981.97
2022-12-15T00:30:22.419Z,981.99
2022-12-15T00:31:22.443Z,982.02
2022-12-15T00:32:22.384Z,982.02
2022-12-15T00:33:22.382Z,981.99
2022-12-15T00:34:22.374Z,982.08
2022-12-15T00:35:22.411Z,982.02
2022-12-15T00:36:22.371Z,982.10
2022-12-15T00:37:22.387Z,982.09
2022-12-15T00:38:22.395Z,982.01
2022-12-15T00:39:22.401Z,982.06
2022-12-15T00:40:22.399Z,982.09
2022-12-15T00:41:22.407Z,982.18
2022-12-15T00:42:22.387Z,982.20
2022-12-15T00:43:22.407Z,982.14
2022-12-15T00:44:22.409Z,982.16
2022-12-15T00:45:22.423Z,982.20
2022-12-15T00:46:22.461Z,982.13
2022-12-15T00:47:22.406Z,982.13
2022-12-15T00:48:22.397Z,982.22
2022-12-15T00:49:22.391Z,982.15
2022-12-15T00:50:22.400Z,982.29
2022-12-15T00:51:22.422Z,982.23
2022-12-15T00:52:22.368Z,982.21
2022-12-15T00:53:22.403Z,982.28
2022-12-15T00:54:22.388Z,982.26
2022-12-15T00:55:22.388Z,982.26
2022-12-15T00:56:22.406Z,982.22
2022-12-15T00:57:22.385Z,982.24
2022-12-15T00:58:22.405Z,982.27
2022-12-15T00:59:22.454Z,982.30
2022-12-15T01:00:22.387Z,982.22
2022-12-15T01:01:22.657Z,982.22
2022-12-15T01:02:22.602Z,982.26
2022-12-15T01:03:22.592Z,982.30
2022-12-15T01:04:22.465Z,982.25
2022-12-15T01:05:22.433Z,982.29
2022-12-15T01:06:22.419Z,982.28
2022-12-15T01:07:22.422Z,982.40
2022-12-15T01:08:22.423Z,982.36
2022-12-15T01:09:22.409Z,982.30
2022-12-15T01:10:22.389Z,982.29
2022-12-15T01:11:22.412Z,982.36
2022-12-15T01:12:22.407Z,982.33
2022-12-15T01:13:22.409Z,982.36
2022-12-15T01:14:22.417Z,982.41
2022-12-15T01:15:22.420Z,982.45
2022-12-15T01:16:22.472Z,982.45
2022-12-15T01:17:22.421Z,982.49
2022-12-15T01:18:22.428Z,982.54
2022-12-15T01:19:22.471Z,982.53
2022-12-15T01:20:22.413Z,982.54
2022-12-15T01:21:24.986Z,982.52
2022-12-15T01:22:22.425Z,982.53
2022-12-15T01:23:22.412Z,982.45
2022-12-15T01:24:22.411Z,982.61
2022-12-15T01:25:22.441Z,982.53
2022-12-15T01:26:22.427Z,982.50
2022-12-15T01:27:22.434Z,982.47
2022-12-15T01:28:22.465Z,982.57
2022-12-15T01:29:22.429Z,982.51
2022-12-15T01:30:22.442Z,982.64
2022-12-15T01:31:22.421Z,982.67
2022-12-15T01:32:22.449Z,982.71
2022-12-15T01:33:22.430Z,982.74
2022-12-15T01:34:22.435Z,982.64
2022-12-15T01:35:22.442Z,982.60
2022-12-15T01:36:22.442Z,982.72
2022-12-15T01:37:22.450Z,982.73
2022-12-15T01:38:22.448Z,982.69
2022-12-15T01:39:22.428Z,982.72
2022-12-15T01:40:22.434Z,982.70
2022-12-15T01:41:22.463Z,982.63
2022-12-15T01:42:22.442Z,982.66
2022-12-15T01:43:22.454Z,982.72
2022-12-15T01:44:22.438Z,982.71
2022-12-15T01:45:22.428Z,982.75
2022-12-15T01:46:22.486Z,982.68
2022-12-15T01:47:22.440Z,982.79
2022-12-15T01:48:22.457Z,982.78
2022-12-15T01:49:22.444Z,982.75
2022-12-15T01:50:22.457Z,982.69
2022-12-15T01:51:22.446Z,982.70
2022-12-15T01:52:22.440Z,982.88
2022-12-15T01:53:22.448Z,982.71
2022-12-15T01:54:22.442Z,982.72
2022-12-15T01:55:22.442Z,982.73
2022-12-15T01:56:22.463Z,982.75
2022-12-15T01:57:22.443Z,982.76
2022-12-15T01:58:22.454Z,982.85
2022-12-15T01:59:22.457Z,982.82
2022-12-15T02:00:22.510Z,982.87
2022-12-15T02:01:22.599Z,982.87
2022-12-15T02:02:22.574Z,982.84
2022-12-15T02:03:22.513Z,982.71
2022-12-15T02:04:22.464Z,982.90
2022-12-15T02:05:22.455Z,982.95
2022-12-15T02:06:22.455Z,982.92
2022-12-15T02:07:22.461Z,982.87
2022-12-15T02:08:22.455Z,982.94
2022-12-15T02:09:22.458Z,982.97
2022-12-15T02:10:22.443Z,982.93
2022-12-15T02:11:22.432Z,982.91
2022-12-15T02:12:22.462Z,982.96
2022-12-15T02:13:22.458Z,982.99
2022-12-15T02:14:22.482Z,982.99
2022-12-15T02:15:22.467Z,982.97
2022-12-15T02:16:22.543Z,983.01
2022-12-15T02:17:22.683Z,983.09
2022-12-15T02:18:22.466Z,983.09
2022-12-15T02:19:22.524Z,983.11
2022-12-15T02:20:22.465Z,983.08
2022-12-15T02:21:22.470Z,983.11
2022-12-15T02:22:22.466Z,983.09
2022-12-15T02:23:22.486Z,983.11
2022-12-15T02:24:22.480Z,983.14
2022-12-15T02:25:22.474Z,983.23
2022-12-15T02:26:22.478Z,983.09
2022-12-15T02:27:22.528Z,983.15
2022-12-15T02:28:22.497Z,983.17
2022-12-15T02:29:22.488Z,983.13
2022-12-15T02:30:22.531Z,983.22
2022-12-15T02:31:22.524Z,983.15
2022-12-15T02:32:22.480Z,983.17
2022-12-15T02:33:22.466Z,983.10
2022-12-15T02:34:22.517Z,983.14
2022-12-15T02:35:22.476Z,983.16
2022-12-15T02:36:22.481Z,983.14
2022-12-15T02:37:22.482Z,983.14
2022-12-15T02:38:22.483Z,983.18
2022-12-15T02:39:22.596Z,983.23
2022-12-15T02:40:22.482Z,983.11
2022-12-15T02:41:22.471Z,983.21
2022-12-15T02:42:22.468Z,983.16
2022-12-15T02:43:22.478Z,983.15
2022-12-15T02:44:22.592Z,983.16
2022-12-15T02:45:22.530Z,983.10
2022-12-15T02:46:22.490Z,983.12
2022-12-15T02:47:22.489Z,983.22
2022-12-15T02:48:22.499Z,983.16
2022-12-15T02:49:22.583Z,983.22
2022-12-15T02:50:22.543Z,983.22
2022-12-15T02:51:22.508Z,983.22
2022-12-15T02:52:22.492Z,983.30
2022-12-15T02:53:22.491Z,983.26
2022-12-15T02:54:22.542Z,983.23
2022-12-15T02:55:22.507Z,983.29
2022-12-15T02:56:22.512Z,983.22
2022-12-15T02:57:22.504Z,983.26
2022-12-15T02:58:22.480Z,983.24
2022-12-15T02:59:22.540Z,983.19
2022-12-15T03:00:22.606Z,983.27
2022-12-15T03:01:22.656Z,983.32
2022-12-15T03:02:22.624Z,983.34
2022-12-15T03:03:22.547Z,983.27
2022-12-15T03:04:22.559Z,983.32
2022-12-15T03:05:22.497Z,983.30
2022-12-15T03:06:22.526Z,983.38
2022-12-15T03:07:22.527Z,983.39
2022-12-15T03:08:22.513Z,983.36
2022-12-15T03:09:22.545Z,983.25
2022-12-15T03:10:22.497Z,983.35
2022-12-15T03:11:22.883Z,983.39
2022-12-15T03:12:22.501Z,983.39
2022-12-15T03:13:22.518Z,983.41
2022-12-15T03:14:22.527Z,983.45
2022-12-15T03:15:22.512Z,983.41
2022-12-15T03:16:22.583Z,983.47
2022-12-15T03:17:22.520Z,983.43
2022-12-15T03:18:22.540Z,983.40
2022-12-15T03:19:22.530Z,983.45
2022-12-15T03:20:22.529Z,983.43
2022-12-15T03:21:22.521Z,983.43
2022-12-15T03:22:22.531Z,983.57
2022-12-15T03:23:22.506Z,983.44
2022-12-15T03:24:22.532Z,983.42
2022-12-15T03:25:22.529Z,983.48
2022-12-15T03:26:22.537Z,983.49
2022-12-15T03:27:22.532Z,983.50
2022-12-15T03:28:22.519Z,983.52
2022-12-15T03:29:22.523Z,983.49
2022-12-15T03:30:22.571Z,983.50
2022-12-15T03:31:22.601Z,983.52
2022-12-15T03:32:22.535Z,983.48
2022-12-15T03:33:22.549Z,983.41
2022-12-15T03:34:22.529Z,983.47
2022-12-15T03:35:22.510Z,983.37
2022-12-15T03:36:22.510Z,983.41
2022-12-15T03:37:22.553Z,983.51
2022-12-15T03:38:22.538Z,983.44
2022-12-15T03:39:22.521Z,983.49
2022-12-15T03:40:22.548Z,983.54
2022-12-15T03:41:22.533Z,983.47
2022-12-15T03:42:22.519Z,983.53
2022-12-15T03:43:22.526Z,983.52
2022-12-15T03:44:22.561Z,983.45
2022-12-15T03:45:22.529Z,983.51
2022-12-15T03:46:22.595Z,983.48
2022-12-15T03:47:22.537Z,983.42
2022-12-15T03:48:22.598Z,983.45
2022-12-15T03:49:22.533Z,983.43
2022-12-15T03:50:22.519Z,983.51
2022-12-15T03:51:22.562Z,983.50
2022-12-15T03:52:22.552Z,983.53
2022-12-15T03:53:22.563Z,983.56
2022-12-15T03:54:22.544Z,983.55
2022-12-15T03:55:22.556Z,983.54
2022-12-15T03:56:22.563Z,983.56
2022-12-15T03:57:22.518Z,983.50
2022-12-15T03:58:22.566Z,983.58
2022-12-15T03:59:22.576Z,983.59
2022-12-15T04:00:22.558Z,983.60
2022-12-15T04:01:22.662Z,983.56
2022-12-15T04:02:22.776Z,983.60
2022-12-15T04:03:22.675Z,983.67
2022-12-15T04:04:22.629Z,983.70
2022-12-15T04:05:22.622Z,983.65
2022-12-15T04:06:22.641Z,983.60
2022-12-15T04:07:22.662Z,983.58
2022-12-15T04:08:22.668Z,983.58
2022-12-15T04:09:22.719Z,983.58
2022-12-15T04:10:22.699Z,983.64
2022-12-15T04:11:22.697Z,983.51
2022-12-15T04:12:22.727Z,983.56
2022-12-15T04:13:22.732Z,983.63
2022-12-15T04:14:22.726Z,983.63
2022-12-15T04:15:22.793Z,983.67
2022-12-15T04:16:22.814Z,983.68
2022-12-15T04:17:22.741Z,983.66
2022-12-15T04:18:22.779Z,983.75
2022-12-15T04:19:22.796Z,983.79
2022-12-15T04:20:22.825Z,983.80
2022-12-15T04:21:22.817Z,983.86
2022-12-15T04:22:22.831Z,983.85
2022-12-15T04:23:22.851Z,983.79
2022-12-15T04:24:22.832Z,983.85
2022-12-15T04:25:22.859Z,983.88
2022-12-15T04:26:22.894Z,983.86
2022-12-15T04:27:22.892Z,983.89
2022-12-15T04:28:22.922Z,983.93
2022-12-15T04:29:22.906Z,983.91
2022-12-15T04:30:22.937Z,983.91
2022-12-15T04:31:23.027Z,984.00
2022-12-15T04:32:22.956Z,983.96
2022-12-15T04:33:26.402Z,983.89
2022-12-15T04:34:22.962Z,983.89
2022-12-15T04:35:22.983Z,983.95
2022-12-15T04:36:22.979Z,983.83
2022-12-15T04:37:22.963Z,983.93
2022-12-15T04:38:22.976Z,983.90
2022-12-15T04:39:22.955Z,983.84
2022-12-15T04:40:22.953Z,983.89
2022-12-15T04:41:22.953Z,983.90
2022-12-15T04:42:22.973Z,983.91
2022-12-15T04:43:22.972Z,983.83
2022-12-15T04:44:22.960Z,983.87
2022-12-15T04:45:23.027Z,983.80
2022-12-15T04:46:23.041Z,983.80
2022-12-15T04:47:22.960Z,983.79
2022-12-15T04:48:22.963Z,983.82
2022-12-15T04:49:22.976Z,983.86
2022-12-15T04:50:22.980Z,983.83
2022-12-15T04:51:24.078Z,983.86
2022-12-15T04:52:22.986Z,983.82
2022-12-15T04:53:22.976Z,983.88
2022-12-15T04:54:22.970Z,983.94
2022-12-15T04:55:22.996Z,983.80
2022-12-15T04:56:22.949Z,983.86
2022-12-15T04:57:22.981Z,983.88
2022-12-15T04:58:22.970Z,983.90
2022-12-15T04:59:22.987Z,983.88
2022-12-15T05:00:23.001Z,983.91
2022-12-15T05:01:23.060Z,983.94
2022-12-15T05:02:23.260Z,983.93
2022-12-15T05:03:22.979Z,983.86
2022-12-15T05:04:23.078Z,983.99
2022-12-15T05:05:22.994Z,983.94
2022-12-15T05:06:22.980Z,983.91
2022-12-15T05:07:22.982Z,983.99
2022-12-15T05:08:22.995Z,984.02
2022-12-15T05:09:22.991Z,983.98
2022-12-15T05:10:23.010Z,983.95
2022-12-15T05:11:22.990Z,984.02
2022-12-15T05:12:23.001Z,984.03
2022-12-15T05:13:22.994Z,984.08
2022-12-15T05:14:22.997Z,984.15
2022-12-15T05:15:22.999Z,984.12
2022-12-15T05:16:23.062Z,984.15
2022-12-15T05:17:23.045Z,984.11
2022-12-15T05:18:23.011Z,984.08
2022-12-15T05:19:23.014Z,984.20
2022-12-15T05:20:22.998Z,984.15
2022-12-15T05:21:23.029Z,984.15
2022-12-15T05:22:23.011Z,984.19
2022-12-15T05:23:22.982Z,984.22
2022-12-15T05:24:22.997Z,984.20
2022-12-15T05:25:23.003Z,984.29
2022-12-15T05:26:23.013Z,984.25
2022-12-15T05:27:23.008Z,984.28
2022-12-15T05:28:22.997Z,984.23
2022-12-15T05:29:23.013Z,984.24
2022-12-15T05:30:23.028Z,984.19
2022-12-15T05:31:23.053Z,984.15
2022-12-15T05:32:22.992Z,984.12
2022-12-15T05:33:23.027Z,984.09
2022-12-15T05:34:22.998Z,984.14
2022-12-15T05:35:23.011Z,984.10
2022-12-15T05:36:23.023Z,984.16
2022-12-15T05:37:23.049Z,984.14
2022-12-15T05:38:23.009Z,984.07
2022-12-15T05:39:23.001Z,984.12
2022-12-15T05:40:23.005Z,984.12
2022-12-15T05:41:23.012Z,984.15
2022-12-15T05:42:23.027Z,984.18
2022-12-15T05:43:26.382Z,984.20
2022-12-15T05:44:23.006Z,984.22
2022-12-15T05:45:23.024Z,984.27
2022-12-15T05:46:23.109Z,984.18
2022-12-15T05:47:23.033Z,984.18
2022-12-15T05:48:23.023Z,984.28
2022-12-15T05:49:23.034Z,984.24
2022-12-15T05:50:23.025Z,984.27
2022-12-15T05:51:23.016Z,984.22
2022-12-15T05:52:23.025Z,984.25
2022-12-15T05:53:23.018Z,984.30
2022-12-15T05:54:23.081Z,984.33
2022-12-15T05:55:23.017Z,984.33
2022-12-15T05:56:23.014Z,984.39
2022-12-15T05:57:23.035Z,984.42
2022-12-15T05:58:23.006Z,984.40
2022-12-15T05:59:23.052Z,984.42
2022-12-15T06:00:23.021Z,984.46
2022-12-15T06:01:23.070Z,984.46
2022-12-15T06:02:23.140Z,984.44
2022-12-15T06:03:23.009Z,984.45
2022-12-15T06:04:23.074Z,984.45
2022-12-15T06:05:23.035Z,984.48
2022-12-15T06:06:23.067Z,984.45
2022-12-15T06:07:23.365Z,984.55
2022-12-15T06:08:23.191Z,984.47
2022-12-15T06:09:23.057Z,984.53
2022-12-15T06:10:23.028Z,984.54
2022-12-15T06:11:23.048Z,984.50
2022-12-15T06:12:23.026Z,984.52
2022-12-15T06:13:23.034Z,984.51
2022-12-15T06:14:23.044Z,984.51
2022-12-15T06:15:23.049Z,984.49
2022-12-15T06:16:23.124Z,984.51
2022-12-15T06:17:23.045Z,984.53
2022-12-15T06:18:23.035Z,984.58
2022-12-15T06:19:23.090Z,984.57
2022-12-15T06:20:23.063Z,984.56
2022-12-15T06:21:23.022Z,984.63
2022-12-15T06:22:23.054Z,984.56
2022-12-15T06:23:23.051Z,984.55
2022-12-15T06:24:23.057Z,984.63
2022-12-15T06:25:23.087Z,984.67
2022-12-15T06:26:23.052Z,984.73
2022-12-15T06:27:23.056Z,984.76
2022-12-15T06:28:23.067Z,984.79
2022-12-15T06:29:23.053Z,984.79
2022-12-15T06:30:23.082Z,984.84
2022-12-15T06:31:23.143Z,984.88
2022-12-15T06:32:23.072Z,984.86
2022-12-15T06:33:23.062Z,984.91
2022-12-15T06:34:23.034Z,984.86
2022-12-15T06:35:23.083Z,984.86
2022-12-15T06:36:23.068Z,984.87
2022-12-15T06:37:23.055Z,984.85
2022-12-15T06:38:23.067Z,984.92
2022-12-15T06:39:23.106Z,984.85
2022-12-15T06:40:23.080Z,984.89
2022-12-15T06:41:23.053Z,984.89
2022-12-15T06:42:23.063Z,984.82
2022-12-15T06:43:23.047Z,984.85
2022-12-15T06:44:23.060Z,984.75
2022-12-15T06:45:23.076Z,984.75
2022-12-15T06:46:23.124Z,984.77
2022-12-15T06:47:23.064Z,984.83
2022-12-15T06:48:23.054Z,984.77
2022-12-15T06:49:23.059Z,984.78
2022-12-15T06:50:23.050Z,984.78
2022-12-15T06:51:23.095Z,984.86
2022-12-15T06:52:23.094Z,984.87
2022-12-15T06:53:23.114Z,984.81
2022-12-15T06:54:23.084Z,984.75
2022-12-15T06:55:23.063Z,984.77
2022-12-15T06:56:27.239Z,984.74
2022-12-15T06:57:23.095Z,984.81
2022-12-15T06:58:23.074Z,984.84
2022-12-15T06:59:23.084Z,984.84
2022-12-15T07:00:23.083Z,984.88
2022-12-15T07:01:23.320Z,984.90
2022-12-15T07:02:28.714Z,984.88
2022-12-15T07:03:23.244Z,984.89
2022-12-15T07:04:23.183Z,984.95
2022-12-15T07:05:23.086Z,985.00
2022-12-15T07:06:23.057Z,984.98
2022-12-15T07:07:23.076Z,984.97
2022-12-15T07:08:28.662Z,984.88
2022-12-15T07:09:23.065Z,984.94
2022-12-15T07:10:23.248Z,984.92
2022-12-15T07:11:23.088Z,984.99
2022-12-15T07:12:23.080Z,985.00
2022-12-15T07:13:23.096Z,984.93
2022-12-15T07:14:23.096Z,984.87
2022-12-15T07:15:23.078Z,985.00
2022-12-15T07:16:23.270Z,984.94
2022-12-15T07:17:23.109Z,984.95
2022-12-15T07:18:23.114Z,984.86
2022-12-15T07:19:23.085Z,984.85
2022-12-15T07:20:28.606Z,984.85
2022-12-15T07:21:23.106Z,984.94
2022-12-15T07:22:23.101Z,984.93
2022-12-15T07:23:34.492Z,984.94
2022-12-15T07:24:23.100Z,984.86
2022-12-15T07:25:23.086Z,984.88
2022-12-15T07:26:23.133Z,984.93
2022-12-15T07:27:23.108Z,984.93
2022-12-15T07:28:25.950Z,984.92
2022-12-15T07:29:23.604Z,984.99
2022-12-15T07:30:23.089Z,985.06
2022-12-15T07:31:23.338Z,985.06
2022-12-15T07:32:23.125Z,985.16
2022-12-15T07:33:23.106Z,985.13
2022-12-15T07:34:23.082Z,985.11
2022-12-15T07:35:23.125Z,985.11
2022-12-15T07:36:23.154Z,985.10
2022-12-15T07:37:23.112Z,985.09
2022-12-15T07:38:23.280Z,985.10
2022-12-15T07:39:23.163Z,985.11
2022-12-15T07:40:23.121Z,985.08
2022-12-15T07:41:23.101Z,985.06
2022-12-15T07:42:23.101Z,985.08
2022-12-15T07:43:23.111Z,985.04
2022-12-15T07:44:23.109Z,985.12
2022-12-15T07:45:23.104Z,985.10
2022-12-15T07:46:23.228Z,985.12
2022-12-15T07:47:23.111Z,985.19
2022-12-15T07:48:23.132Z,985.19
2022-12-15T07:49:23.114Z,985.20
2022-12-15T07:50:23.105Z,985.28
2022-12-15T07:51:23.110Z,985.16
2022-12-15T07:52:23.119Z,985.24
2022-12-15T07:53:23.114Z,985.22
2022-12-15T07:54:23.147Z,985.25
2022-12-15T07:55:37.487Z,985.22
2022-12-15T07:56:23.103Z,985.34
2022-12-15T07:57:23.101Z,985.31
2022-12-15T07:58:23.272Z,985.34
2022-12-15T07:59:23.110Z,985.30
2022-12-15T08:00:23.127Z,985.28
2022-12-15T08:01:23.211Z,985.37
2022-12-15T08:02:23.322Z,985.33
2022-12-15T08:03:23.301Z,985.30
2022-12-15T08:04:23.125Z,985.37
2022-12-15T08:05:23.152Z,985.38
2022-12-15T08:06:23.116Z,985.44
2022-12-15T08:07:23.120Z,985.41
2022-12-15T08:08:23.115Z,985.40
2022-12-15T08:09:23.136Z,985.43
2022-12-15T08:10:23.148Z,985.46
2022-12-15T08:11:23.130Z,985.39
2022-12-15T08:12:23.133Z,985.33
2022-12-15T08:13:52.898Z,985.34
2022-12-15T08:14:23.662Z,985.35
2022-12-15T08:15:23.165Z,985.38
2022-12-15T08:16:23.290Z,985.35
2022-12-15T08:17:23.148Z,985.35
2022-12-15T08:18:23.135Z,985.34
2022-12-15T08:19:23.139Z,985.38
2022-12-15T08:20:23.166Z,985.37
2022-12-15T08:21:23.162Z,985.35
2022-12-15T08:22:23.124Z,985.31
2022-12-15T08:23:23.137Z,985.35
2022-12-15T08:24:23.152Z,985.37
2022-12-15T08:25:23.155Z,985.35
2022-12-15T08:26:28.491Z,985.38
2022-12-15T08:27:23.176Z,985.42
2022-12-15T08:28:23.131Z,985.32
2022-12-15T08:29:50.781Z,985.31
2022-12-15T08:30:23.151Z,985.39
2022-12-15T08:31:23.235Z,985.38
2022-12-15T08:32:23.251Z,985.42
2022-12-15T08:33:23.144Z,985.45
2022-12-15T08:34:23.154Z,985.52
2022-12-15T08:35:54.699Z,985.59
2022-12-15T08:36:23.176Z,985.56
2022-12-15T08:37:23.154Z,985.60
2022-12-15T08:38:23.186Z,985.57
2022-12-15T08:39:23.147Z,985.56
2022-12-15T08:40:23.164Z,985.54
2022-12-15T08:41:23.188Z,985.49
2022-12-15T08:42:23.174Z,985.41
2022-12-15T08:43:23.148Z,985.44
2022-12-15T08:44:23.140Z,985.44
2022-12-15T08:45:23.179Z,985.46
2022-12-15T08:46:23.238Z,985.41
2022-12-15T08:47:23.172Z,985.48
2022-12-15T08:48:23.176Z,985.50
2022-12-15T08:49:23.171Z,985.44
2022-12-15T08:50:23.161Z,985.48
2022-12-15T08:51:23.189Z,985.56
2022-12-15T08:52:23.158Z,985.54
2022-12-15T08:53:30.923Z,985.53
2022-12-15T08:54:23.179Z,985.47
2022-12-15T08:55:23.162Z,985.48
2022-12-15T08:56:23.175Z,985.51
2022-12-15T08:57:23.142Z,985.55
2022-12-15T08:58:23.176Z,985.53
2022-12-15T08:59:23.177Z,985.54
2022-12-15T09:00:23.166Z,985.59
2022-12-15T09:01:24.087Z,985.66
2022-12-15T09:02:23.251Z,985.66
2022-12-15T09:03:23.213Z,985.68
2022-12-15T09:04:23.281Z,985.77
2022-12-15T09:05:23.195Z,985.70
2022-12-15T09:06:23.233Z,985.73
2022-12-15T09:07:23.228Z,985.71
2022-12-15T09:08:23.274Z,985.75
2022-12-15T09:09:23.193Z,985.79
2022-12-15T09:10:23.191Z,985.72
2022-12-15T09:11:23.233Z,985.73
2022-12-15T09:12:23.196Z,985.82
2022-12-15T09:13:23.172Z,985.81
2022-12-15T09:14:28.916Z,985.85
2022-12-15T09:15:34.095Z,985.83
2022-12-15T09:16:23.309Z,985.78
2022-12-15T09:17:23.240Z,985.82
2022-12-15T09:18:23.181Z,985.81
2022-12-15T09:19:23.191Z,985.85
2022-12-15T09:20:23.175Z,985.85
2022-12-15T09:21:23.245Z,985.83
2022-12-15T09:22:23.192Z,985.86
2022-12-15T09:23:23.217Z,985.83
2022-12-15T09:24:32.230Z,985.81
2022-12-15T09:25:23.184Z,985.91
2022-12-15T09:26:23.212Z,985.88
2022-12-15T09:27:23.203Z,985.87
2022-12-15T09:28:23.201Z,985.98
2022-12-15T09:29:23.206Z,985.97
2022-12-15T09:30:23.199Z,986.03
2022-12-15T09:31:23.330Z,986.05
2022-12-15T09:32:23.180Z,986.05
2022-12-15T09:33:23.182Z,986.10
2022-12-15T09:34:23.221Z,986.19
2022-12-15T09:35:23.211Z,986.11
2022-12-15T09:36:23.200Z,986.16
2022-12-15T09:37:23.190Z,986.19
2022-12-15T09:38:23.178Z,986.16
2022-12-15T09:39:23.208Z,986.19
2022-12-15T09:40:23.268Z,986.13
2022-12-15T09:41:23.180Z,986.25
2022-12-15T09:42:23.214Z,986.25
2022-12-15T09:43:47.149Z,986.25
2022-12-15T09:44:23.214Z,986.22
2022-12-15T09:45:23.220Z,986.25
2022-12-15T09:46:23.407Z,986.20
2022-12-15T09:47:23.209Z,986.27
2022-12-15T09:48:23.208Z,986.23
2022-12-15T09:49:23.200Z,986.25
2022-12-15T09:50:23.273Z,986.28
2022-12-15T09:51:23.247Z,986.34
2022-12-15T09:52:23.207Z,986.29
2022-12-15T09:53:53.706Z,986.35
2022-12-15T09:54:23.277Z,986.27
2022-12-15T09:55:23.290Z,986.26
2022-12-15T09:56:23.272Z,986.37
2022-12-15T09:57:23.244Z,986.30
2022-12-15T09:58:23.229Z,986.32
2022-12-15T09:59:23.214Z,986.25
2022-12-15T10:00:23.234Z,986.27
2022-12-15T10:01:23.233Z,986.34
2022-12-15T10:02:23.275Z,986.25
2022-12-15T10:03:23.355Z,986.22
2022-12-15T10:04:23.240Z,986.28
2022-12-15T10:05:29.777Z,986.35
2022-12-15T10:06:25.943Z,986.31
2022-12-15T10:07:23.209Z,986.32
2022-12-15T10:08:23.238Z,986.35
2022-12-15T10:09:23.233Z,986.40
2022-12-15T10:10:23.315Z,986.33
2022-12-15T10:11:23.224Z,986.34
2022-12-15T10:12:23.237Z,986.36
2022-12-15T10:13:23.249Z,986.39
2022-12-15T10:14:23.241Z,986.38
2022-12-15T10:15:23.234Z,986.41
2022-12-15T10:16:23.319Z,986.39
2022-12-15T10:17:23.220Z,986.38
2022-12-15T10:18:23.244Z,986.36
2022-12-15T10:19:23.244Z,986.38
2022-12-15T10:20:23.329Z,986.36
2022-12-15T10:21:23.249Z,986.38
2022-12-15T10:22:23.272Z,986.30
2022-12-15T10:23:23.229Z,986.33
2022-12-15T10:24:59.735Z,986.34
2022-12-15T10:25:29.802Z,986.32
2022-12-15T10:26:23.268Z,986.23
2022-12-15T10:27:23.242Z,986.27
2022-12-15T10:28:23.225Z,986.32
2022-12-15T10:29:23.331Z,986.28
2022-12-15T10:30:23.497Z,986.32
2022-12-15T10:31:23.299Z,986.34
2022-12-15T10:32:23.292Z,986.29
2022-12-15T10:33:23.286Z,986.23
2022-12-15T10:34:23.326Z,986.23
2022-12-15T10:35:23.242Z,986.24
2022-12-15T10:36:23.248Z,986.21
2022-12-15T10:37:23.257Z,986.24
2022-12-15T10:38:23.253Z,986.29
2022-12-15T10:39:23.249Z,986.27
2022-12-15T10:40:23.366Z,986.18
2022-12-15T10:41:23.262Z,986.29
2022-12-15T10:42:23.257Z,986.26
2022-12-15T10:43:23.260Z,986.29
2022-12-15T10:44:28.626Z,986.30
2022-12-15T10:45:23.262Z,986.28
2022-12-15T10:46:23.307Z,986.27
2022-12-15T10:47:23.257Z,986.27
2022-12-15T10:48:23.269Z,986.26
2022-12-15T10:49:23.275Z,986.21
2022-12-15T10:50:25.074Z,986.21
2022-12-15T10:51:23.263Z,986.21
2022-12-15T10:52:23.281Z,986.25
2022-12-15T10:53:23.264Z,986.23
2022-12-15T10:54:23.266Z,986.27
2022-12-15T10:55:23.258Z,986.29
2022-12-15T10:56:28.763Z,986.21
2022-12-15T10:57:23.276Z,986.17
2022-12-15T10:58:23.289Z,986.09
2022-12-15T10:59:23.262Z,986.09
2022-12-15T11:00:23.262Z,985.94
2022-12-15T11:01:23.353Z,986.01
2022-12-15T11:02:25.066Z,985.99
2022-12-15T11:03:23.525Z,985.97
2022-12-15T11:04:23.349Z,985.95
2022-12-15T11:05:23.248Z,986.00
2022-12-15T11:06:23.279Z,986.04
2022-12-15T11:07:23.289Z,986.03
2022-12-15T11:08:23.257Z,986.02
2022-12-15T11:09:23.271Z,986.00
2022-12-15T11:10:23.274Z,985.98
2022-12-15T11:11:26.095Z,985.98
2022-12-15T11:12:23.323Z,986.08
2022-12-15T11:13:23.279Z,986.06
2022-12-15T11:14:23.281Z,985.96
2022-12-15T11:15:23.271Z,986.06
2022-12-15T11:16:23.282Z,985.96
2022-12-15T11:17:23.293Z,985.95
2022-12-15T11:18:23.294Z,985.98
2022-12-15T11:19:23.284Z,985.99
2022-12-15T11:20:23.282Z,985.97
2022-12-15T11:21:23.275Z,985.97
2022-12-15T11:22:23.272Z,985.94
2022-12-15T11:23:24.025Z,985.98
2022-12-15T11:24:23.299Z,985.97
2022-12-15T11:25:23.287Z,985.98
2022-12-15T11:26:23.305Z,986.02
2022-12-15T11:27:23.318Z,986.02
2022-12-15T11:28:23.311Z,985.95
2022-12-15T11:29:23.278Z,986.00
2022-12-15T11:30:23.295Z,985.88
2022-12-15T11:31:23.274Z,985.88
2022-12-15T11:32:23.283Z,985.88
2022-12-15T11:33:23.293Z,985.93
2022-12-15T11:34:23.296Z,985.84
2022-12-15T11:35:23.299Z,985.84
2022-12-15T11:36:23.308Z,985.89
2022-12-15T11:37:23.356Z,985.93
2022-12-15T11:38:23.308Z,985.86
2022-12-15T11:39:23.308Z,985.89
2022-12-15T11:40:23.313Z,985.93
2022-12-15T11:41:23.282Z,985.94
2022-12-15T11:42:23.296Z,985.87
2022-12-15T11:43:23.320Z,985.89
2022-12-15T11:44:23.307Z,985.85
2022-12-15T11:45:23.369Z,985.80
2022-12-15T11:46:23.304Z,985.74
2022-12-15T11:47:23.316Z,985.78
2022-12-15T11:48:23.317Z,985.78
2022-12-15T11:49:23.299Z,985.67
2022-12-15T11:50:23.313Z,985.67
2022-12-15T11:51:23.325Z,985.59
2022-12-15T11:52:23.308Z,985.64
2022-12-15T11:53:23.302Z,985.67
2022-12-15T11:54:23.325Z,985.61
2022-12-15T11:55:29.578Z,985.62
2022-12-15T11:56:23.321Z,985.53
2022-12-15T11:57:23.308Z,985.52
2022-12-15T11:58:23.309Z,985.55
2022-12-15T11:59:23.319Z,985.45
2022-12-15T12:00:23.316Z,985.42
2022-12-15T12:01:23.349Z,985.46
2022-12-15T12:02:23.474Z,985.52
2022-12-15T12:03:23.348Z,985.55
2022-12-15T12:04:23.315Z,985.43
2022-12-15T12:05:23.311Z,985.40
2022-12-15T12:06:23.315Z,985.47
2022-12-15T12:07:23.312Z,985.48
2022-12-15T12:08:23.326Z,985.43
2022-12-15T12:09:23.333Z,985.44
2022-12-15T12:10:23.319Z,985.48
2022-12-15T12:11:23.334Z,985.45
2022-12-15T12:12:23.316Z,985.39
2022-12-15T12:13:23.325Z,985.36
2022-12-15T12:14:23.311Z,985.45
2022-12-15T12:15:23.349Z,985.39
2022-12-15T12:16:23.331Z,985.40
2022-12-15T12:17:23.327Z,985.42
2022-12-15T12:18:23.344Z,985.42
2022-12-15T12:19:23.370Z,985.42
2022-12-15T12:20:23.346Z,985.42
2022-12-15T12:21:23.337Z,985.46
2022-12-15T12:22:23.333Z,985.51
2022-12-15T12:23:23.358Z,985.55
2022-12-15T12:24:23.351Z,985.54
2022-12-15T12:25:23.378Z,985.57
2022-12-15T12:26:23.439Z,985.58
2022-12-15T12:27:23.350Z,985.63
2022-12-15T12:28:23.400Z,985.61